createdAt,value
2023-03-24T00:02:13.494Z,99724.25
2023-03-24T00:04:42.630Z,99718.25
2023-03-24T00:07:14.356Z,99705.03
2023-03-24T00:09:41.852Z,99703.38
2023-03-24T00:12:10.818Z,99702.41
2023-03-24T00:14:39.242Z,99705.03
2023-03-24T00:17:06.763Z,99692.69
2023-03-24T00:19:38.310Z,99693.50
2023-03-24T00:22:05.810Z,99692.56
2023-03-24T00:24:33.611Z,99687.28
2023-03-24T00:27:01.186Z,99679.34
2023-03-24T00:29:30.166Z,99678.38
2023-03-24T00:31:57.656Z,99673.09
2023-03-24T00:34:25.845Z,99669.47
2023-03-24T00:36:53.397Z,99665.00
2023-03-24T00:39:21.241Z,99661.38
2023-03-24T00:41:48.947Z,99651.66
2023-03-24T00:44:18.082Z,99652.47
2023-03-24T00:46:55.511Z,99643.72
2023-03-24T00:49:41.891Z,99645.69
2023-03-24T00:52:11.046Z,99636.78
2023-03-24T00:54:39.857Z,99645.38
2023-03-24T00:57:07.853Z,99628.72
2023-03-24T00:59:42.390Z,99634.81
2023-03-24T01:02:12.725Z,99622.59
2023-03-24T01:04:41.034Z,99613.84
2023-03-24T01:07:10.980Z,99609.41
2023-03-24T01:09:38.624Z,99605.78
2023-03-24T01:12:07.011Z,99621.63
2023-03-24T01:14:34.549Z,99612.88
2023-03-24T01:17:03.504Z,99599.50
2023-03-24T01:19:33.048Z,99603.97
2023-03-24T01:22:00.571Z,99598.53
2023-03-24T01:24:28.095Z,99596.88
2023-03-24T01:26:55.603Z,99593.25
2023-03-24T01:29:23.170Z,99580.03
2023-03-24T01:31:50.648Z,99579.09
2023-03-24T01:34:18.128Z,99570.19
2023-03-24T01:36:46.998Z,99565.72
2023-03-24T01:39:14.534Z,99568.22
2023-03-24T01:41:42.537Z,99561.94
2023-03-24T01:44:27.293Z,99555.66
2023-03-24T01:46:54.902Z,99559.00
2023-03-24T01:49:22.386Z,99551.09
2023-03-24T01:51:51.454Z,99557.03
2023-03-24T01:54:19.661Z,99542.84
2023-03-24T01:56:48.558Z,99545.34
2023-03-24T01:59:22.526Z,99534.59
2023-03-24T02:01:49.982Z,99532.78
2023-03-24T02:04:17.539Z,99523.91
2023-03-24T02:06:45.693Z,99522.09
2023-03-24T02:09:14.879Z,99515.00
2023-03-24T02:11:42.563Z,99511.38
2023-03-24T02:14:10.159Z,99512.19
2023-03-24T02:16:50.891Z,99512.19
2023-03-24T02:19:38.839Z,99504.28
2023-03-24T02:22:15.836Z,99496.19
2023-03-24T02:24:53.701Z,99491.75
2023-03-24T02:27:27.084Z,99474.06
2023-03-24T02:30:02.043Z,99471.28
2023-03-24T02:32:33.938Z,99471.28
2023-03-24T02:35:31.612Z,99483.53
2023-03-24T02:38:14.005Z,99475.59
2023-03-24T02:40:43.562Z,99479.06
2023-03-24T02:43:15.516Z,99462.22
2023-03-24T02:45:44.895Z,99474.59
2023-03-24T02:48:18.778Z,99464.03
2023-03-24T02:50:48.017Z,99464.03
2023-03-24T02:53:16.613Z,99451.81
2023-03-24T02:55:47.347Z,99454.31
2023-03-24T02:58:15.736Z,99446.53
2023-03-24T03:00:47.371Z,99447.38
2023-03-24T03:03:15.962Z,99440.25
2023-03-24T03:05:45.079Z,99442.75
2023-03-24T03:08:13.437Z,99440.94
2023-03-24T03:10:41.807Z,99433.84
2023-03-24T03:13:12.392Z,99436.47
2023-03-24T03:15:40.715Z,99432.00
2023-03-24T03:18:08.792Z,99433.66
2023-03-24T03:20:37.514Z,99427.41
2023-03-24T03:23:05.666Z,99425.56
2023-03-24T03:25:34.762Z,99413.34
2023-03-24T03:28:03.653Z,99418.66
2023-03-24T03:30:33.716Z,99426.41
2023-03-24T03:33:02.674Z,99428.09
2023-03-24T03:35:30.614Z,99416.69
2023-03-24T03:37:59.770Z,99430.56
2023-03-24T03:40:29.040Z,99435.84
2023-03-24T03:42:56.643Z,99429.41
2023-03-24T03:45:24.126Z,99429.41
2023-03-24T03:47:53.053Z,99425.78
2023-03-24T03:50:20.636Z,99441.63
2023-03-24T03:52:48.128Z,99444.00
2023-03-24T03:55:15.721Z,99451.09
2023-03-24T03:57:43.246Z,99446.66
2023-03-24T04:00:15.773Z,99460.69
2023-03-24T04:02:45.484Z,99485.28
2023-03-24T04:05:19.750Z,99500.31
2023-03-24T04:07:58.207Z,99496.84
2023-03-24T04:10:26.248Z,99501.41
2023-03-24T04:13:00.571Z,99504.38
2023-03-24T04:15:30.638Z,99520.22
2023-03-24T04:18:03.281Z,99531.94
2023-03-24T04:20:34.330Z,99525.97
2023-03-24T04:23:04.013Z,99540.16
2023-03-24T04:25:35.142Z,99555.34
2023-03-24T04:28:05.482Z,99555.50
2023-03-24T04:30:33.989Z,99559.25
2023-03-24T04:33:01.782Z,99570.31
2023-03-24T04:35:32.563Z,99560.88
2023-03-24T04:38:03.854Z,99574.22
2023-03-24T04:40:32.979Z,99580.13
2023-03-24T04:43:01.512Z,99572.50
2023-03-24T04:45:29.074Z,99571.84
2023-03-24T04:47:58.666Z,99579.22
2023-03-24T04:50:30.996Z,99574.41
2023-03-24T04:52:58.892Z,99586.56
2023-03-24T04:55:33.852Z,99604.47
2023-03-24T04:58:01.689Z,99612.88
2023-03-24T05:00:29.140Z,99626.22
2023-03-24T05:02:56.671Z,99631.94
2023-03-24T05:05:24.344Z,99635.00
2023-03-24T05:07:51.809Z,99650.47
2023-03-24T05:10:21.778Z,99654.22
2023-03-24T05:12:51.165Z,99661.63
2023-03-24T05:15:18.817Z,99657.31
2023-03-24T05:17:46.584Z,99663.72
2023-03-24T05:20:15.085Z,99679.53
2023-03-24T05:22:42.566Z,99686.09
2023-03-24T05:25:10.309Z,99695.28
2023-03-24T05:27:37.901Z,99686.97
2023-03-24T05:30:07.682Z,99708.34
2023-03-24T05:32:35.238Z,99706.03
2023-03-24T05:35:02.898Z,99706.16
2023-03-24T05:37:30.383Z,99708.09
2023-03-24T05:39:57.911Z,99717.81
2023-03-24T05:42:25.424Z,99705.91
2023-03-24T05:44:52.927Z,99720.09
2023-03-24T05:47:21.907Z,99717.44
2023-03-24T05:49:50.380Z,99728.00
2023-03-24T05:52:17.870Z,99734.25
2023-03-24T05:54:45.986Z,99736.16
2023-03-24T05:57:13.523Z,99741.44
2023-03-24T05:59:41.396Z,99742.56
2023-03-24T06:02:09.146Z,99748.97
2023-03-24T06:04:38.326Z,99753.28
2023-03-24T06:07:05.924Z,99763.81
2023-03-24T06:09:37.201Z,99773.69
2023-03-24T06:12:06.658Z,99778.97
2023-03-24T06:14:34.783Z,99778.97
2023-03-24T06:17:02.376Z,99773.69
2023-03-24T06:19:30.819Z,99780.63
2023-03-24T06:22:02.887Z,99780.47
2023-03-24T06:24:30.731Z,99776.03
2023-03-24T06:26:59.144Z,99784.91
2023-03-24T06:29:27.243Z,99802.69
2023-03-24T06:31:54.848Z,99795.72
2023-03-24T06:34:24.988Z,99791.16
2023-03-24T06:36:52.605Z,99799.09
2023-03-24T06:39:21.520Z,99812.28
2023-03-24T06:41:48.985Z,99803.63
2023-03-24T06:44:16.559Z,99805.34
2023-03-24T06:46:45.807Z,99810.59
2023-03-24T06:49:13.339Z,99808.09
2023-03-24T06:51:40.888Z,99816.16
2023-03-24T06:54:08.387Z,99815.88
2023-03-24T06:56:37.411Z,99817.53
2023-03-24T06:59:05.145Z,99822.81
2023-03-24T07:01:35.271Z,99827.81
2023-03-24T07:04:03.127Z,99822.53
2023-03-24T07:06:30.866Z,99827.81
2023-03-24T07:08:58.363Z,99826.13
2023-03-24T07:11:25.931Z,99831.56
2023-03-24T07:13:54.833Z,99842.25
2023-03-24T07:16:23.141Z,99840.56
2023-03-24T07:18:50.834Z,99846.97
2023-03-24T07:21:18.336Z,99852.81
2023-03-24T07:23:46.103Z,99854.31
2023-03-24T07:26:13.588Z,99848.91
2023-03-24T07:28:41.181Z,99852.22
2023-03-24T07:31:10.948Z,99857.50
2023-03-24T07:33:38.937Z,99853.88
2023-03-24T07:36:07.575Z,99863.59
2023-03-24T07:38:35.448Z,99861.69
2023-03-24T07:41:02.977Z,99865.16
2023-03-24T07:43:30.500Z,99862.22
2023-03-24T07:45:58.327Z,99860.25
2023-03-24T07:48:27.283Z,99862.63
2023-03-24T07:50:55.125Z,99856.25
2023-03-24T07:53:22.761Z,99860.38
2023-03-24T07:55:50.333Z,99861.09
2023-03-24T07:58:17.989Z,99857.19
2023-03-24T08:00:45.592Z,99864.13
2023-03-24T08:03:14.416Z,99861.22
2023-03-24T08:05:45.050Z,99870.50
2023-03-24T08:08:12.716Z,99864.13
2023-03-24T08:10:40.218Z,99863.84
2023-03-24T08:13:07.694Z,99880.09
2023-03-24T08:15:35.363Z,99885.75
2023-03-24T08:18:02.951Z,99886.31
2023-03-24T08:20:30.798Z,99888.97
2023-03-24T08:23:00.979Z,99889.50
2023-03-24T08:25:28.554Z,99889.91
2023-03-24T08:27:56.466Z,99899.91
2023-03-24T08:30:24.536Z,99892.66
2023-03-24T08:32:52.703Z,99903.91
2023-03-24T08:35:21.041Z,99896.81
2023-03-24T08:37:48.523Z,99914.34
2023-03-24T08:40:19.456Z,99912.38
2023-03-24T08:42:49.142Z,99904.59
2023-03-24T08:45:16.659Z,99905.94
2023-03-24T08:47:44.176Z,99917.91
2023-03-24T08:50:11.717Z,99919.25
2023-03-24T08:52:39.183Z,99918.44
2023-03-24T08:55:07.637Z,99928.56
2023-03-24T08:57:36.559Z,99935.25
2023-03-24T09:00:11.865Z,99931.63
2023-03-24T09:02:39.441Z,99936.59
2023-03-24T09:05:07.062Z,99929.66
2023-03-24T09:07:34.599Z,99934.94
2023-03-24T09:10:02.404Z,99941.22
2023-03-24T09:12:29.880Z,99937.59
2023-03-24T09:14:58.786Z,99938.56
2023-03-24T09:17:26.357Z,99938.94
2023-03-24T09:19:53.882Z,99933.78
2023-03-24T09:22:21.352Z,99947.81
2023-03-24T09:24:49.290Z,99938.03
2023-03-24T09:27:17.261Z,99939.50
2023-03-24T09:29:45.008Z,99953.66
2023-03-24T09:32:14.044Z,99942.31
2023-03-24T09:34:41.578Z,99944.91
2023-03-24T09:37:09.013Z,99940.16
2023-03-24T09:39:36.652Z,99943.56
2023-03-24T09:42:04.901Z,99944.03
2023-03-24T09:44:32.873Z,99939.16
2023-03-24T09:47:01.351Z,99938.97
2023-03-24T09:49:31.256Z,99927.28
2023-03-24T09:52:01.653Z,99936.81
2023-03-24T09:54:29.892Z,99934.16
2023-03-24T09:56:57.499Z,99944.69
2023-03-24T09:59:27.732Z,99949.63
2023-03-24T10:01:55.399Z,99956.34
2023-03-24T10:04:23.491Z,99961.13
2023-03-24T10:06:53.402Z,99971.09
2023-03-24T10:09:25.398Z,99967.16
2023-03-24T10:11:56.673Z,99958.44
2023-03-24T10:14:26.968Z,99959.66
2023-03-24T10:16:55.785Z,99959.44
2023-03-24T10:19:25.584Z,99968.44
2023-03-24T10:21:56.574Z,99966.81
2023-03-24T10:24:24.738Z,99976.50
2023-03-24T10:26:53.683Z,99966.94
2023-03-24T10:29:23.099Z,99976.25
2023-03-24T10:31:51.705Z,99967.34
2023-03-24T10:34:19.284Z,99954.63
2023-03-24T10:36:46.805Z,99960.50
2023-03-24T10:39:21.091Z,99963.88
2023-03-24T10:41:54.588Z,99965.59
2023-03-24T10:44:22.084Z,99969.56
2023-03-24T10:46:50.571Z,99973.22
2023-03-24T10:49:19.826Z,99966.25
2023-03-24T10:51:48.897Z,99958.28
2023-03-24T10:54:18.917Z,99961.63
2023-03-24T10:56:47.266Z,99971.09
2023-03-24T10:59:19.974Z,99974.72
2023-03-24T11:01:47.645Z,99971.75
2023-03-24T11:04:15.897Z,99977.84
2023-03-24T11:07:02.721Z,99977.81
2023-03-24T11:09:33.299Z,99983.72
2023-03-24T11:12:03.693Z,99983.47
2023-03-24T11:14:31.750Z,99983.56
2023-03-24T11:17:03.741Z,99996.47
2023-03-24T11:19:32.584Z,99990.63
2023-03-24T11:22:01.188Z,99994.59
2023-03-24T11:24:28.712Z,100000.00
2023-03-24T11:27:00.156Z,100002.25
2023-03-24T11:29:28.113Z,100003.34
2023-03-24T11:31:56.273Z,100003.13
2023-03-24T11:34:25.313Z,100007.44
2023-03-24T11:36:53.518Z,99993.94
2023-03-24T11:39:22.171Z,99995.50
2023-03-24T11:41:53.986Z,99997.22
2023-03-24T11:44:23.624Z,99999.06
2023-03-24T11:46:51.962Z,99992.72
2023-03-24T11:49:20.426Z,99993.84
2023-03-24T11:51:48.286Z,99999.22
2023-03-24T11:54:16.611Z,99998.41
2023-03-24T11:56:44.528Z,99981.22
2023-03-24T11:59:27.803Z,99988.03
2023-03-24T12:01:58.635Z,99981.06
2023-03-24T12:04:29.276Z,99981.38
2023-03-24T12:06:59.048Z,99984.69
2023-03-24T12:09:32.111Z,99997.38
2023-03-24T12:12:08.349Z,99999.97
2023-03-24T12:14:38.208Z,100014.00
2023-03-24T12:17:08.121Z,100019.72
2023-03-24T12:19:53.270Z,100021.53
2023-03-24T12:22:23.481Z,100026.75
2023-03-24T12:24:57.711Z,100031.28
2023-03-24T12:27:27.202Z,100031.78
2023-03-24T12:29:57.204Z,100033.16
2023-03-24T12:32:29.120Z,100035.84
2023-03-24T12:35:09.528Z,100034.25
2023-03-24T12:37:40.016Z,100032.34
2023-03-24T12:40:14.641Z,100033.94
2023-03-24T12:42:42.338Z,100038.88
2023-03-24T12:45:15.095Z,100032.50
2023-03-24T12:47:53.566Z,100031.97
2023-03-24T12:50:24.807Z,100040.66
2023-03-24T12:53:07.566Z,100048.91
2023-03-24T12:55:36.570Z,100040.72
2023-03-24T12:58:05.529Z,100041.97
2023-03-24T13:00:33.417Z,100047.72
2023-03-24T13:03:02.956Z,100048.00
2023-03-24T13:05:31.697Z,100069.78
2023-03-24T13:08:02.599Z,100045.88
2023-03-24T13:10:30.848Z,100050.06
2023-03-24T13:12:59.632Z,100051.03
2023-03-24T13:15:27.379Z,100024.16
2023-03-24T13:17:56.655Z,100029.63
2023-03-24T13:20:27.214Z,100032.38
2023-03-24T13:22:54.740Z,100043.50
2023-03-24T13:25:24.466Z,100033.91
2023-03-24T13:27:52.027Z,100025.19
2023-03-24T13:30:22.141Z,100034.69
2023-03-24T13:32:50.433Z,100038.63
2023-03-24T13:35:20.668Z,100029.59
2023-03-24T13:37:49.853Z,100042.41
2023-03-24T13:40:20.593Z,100037.03
2023-03-24T13:42:48.851Z,100024.09
2023-03-24T13:45:23.148Z,100014.22
2023-03-24T13:47:51.373Z,100018.34
2023-03-24T13:50:18.999Z,100014.41
2023-03-24T13:52:47.171Z,100022.06
2023-03-24T13:55:16.773Z,100024.72
2023-03-24T13:57:44.368Z,100015.25
2023-03-24T14:00:18.580Z,100020.00
2023-03-24T14:02:49.603Z,100024.75
2023-03-24T14:05:41.749Z,100026.69
2023-03-24T14:08:14.048Z,100013.91
2023-03-24T14:10:46.793Z,100019.50
2023-03-24T14:13:21.400Z,100020.47
2023-03-24T14:15:50.429Z,100029.25
2023-03-24T14:18:33.096Z,100040.13
2023-03-24T14:21:01.850Z,100038.59
2023-03-24T14:23:33.928Z,100023.16
2023-03-24T14:26:02.877Z,100031.53
2023-03-24T14:28:31.738Z,100033.75
2023-03-24T14:31:03.579Z,100034.72
2023-03-24T14:33:31.641Z,100030.72
2023-03-24T14:36:01.629Z,100034.34
2023-03-24T14:38:29.224Z,100031.56
2023-03-24T14:40:58.346Z,100036.84
2023-03-24T14:43:28.429Z,100044.94
2023-03-24T14:45:57.417Z,100043.22
2023-03-24T14:48:28.827Z,100042.84
2023-03-24T14:50:56.403Z,100036.28
2023-03-24T14:53:24.152Z,100029.34
2023-03-24T14:55:51.656Z,100035.75
2023-03-24T14:58:21.278Z,100042.97
2023-03-24T15:01:06.500Z,100043.81
2023-03-24T15:03:37.988Z,100049.97
2023-03-24T15:06:12.926Z,100047.44
2023-03-24T15:08:40.938Z,100055.53
2023-03-24T15:11:08.645Z,100037.22
2023-03-24T15:13:36.825Z,100025.66
2023-03-24T15:16:07.616Z,100026.09
2023-03-24T15:18:35.329Z,100031.38
2023-03-24T15:21:03.269Z,100021.63
2023-03-24T15:23:31.314Z,100017.19
2023-03-24T15:25:58.881Z,100004.97
2023-03-24T15:28:27.301Z,100009.13
2023-03-24T15:30:54.822Z,100008.16
2023-03-24T15:33:23.884Z,100014.81
2023-03-24T15:35:55.767Z,100000.22
2023-03-24T15:38:28.760Z,99988.53
2023-03-24T15:40:58.339Z,99987.41
2023-03-24T15:43:25.836Z,99988.09
2023-03-24T15:46:04.708Z,99989.44
2023-03-24T15:48:38.248Z,99989.72
2023-03-24T15:51:06.286Z,99992.06
2023-03-24T15:53:39.386Z,99980.66
2023-03-24T15:56:08.304Z,99978.31
2023-03-24T15:58:49.073Z,99974.56
2023-03-24T16:01:17.339Z,99971.50
2023-03-24T16:03:48.279Z,99979.19
2023-03-24T16:06:16.665Z,99978.22
2023-03-24T16:08:45.916Z,99973.25
2023-03-24T16:11:13.801Z,99982.97
2023-03-24T16:13:41.832Z,99982.16
2023-03-24T16:16:10.546Z,99984.94
2023-03-24T16:18:39.006Z,99989.25
2023-03-24T16:21:12.582Z,99970.59
2023-03-24T16:23:40.080Z,99980.19
2023-03-24T16:26:09.717Z,99970.47
2023-03-24T16:28:37.217Z,99985.47
2023-03-24T16:31:05.272Z,99976.88
2023-03-24T16:33:32.944Z,99978.94
2023-03-24T16:36:02.308Z,99976.84
2023-03-24T16:38:33.035Z,99981.47
2023-03-24T16:41:00.962Z,99977.00
2023-03-24T16:43:29.725Z,99973.53
2023-03-24T16:45:57.296Z,99977.00
2023-03-24T16:48:24.745Z,99977.00
2023-03-24T16:50:53.352Z,99976.03
2023-03-24T16:53:21.708Z,99975.09
2023-03-24T16:55:50.774Z,99967.16
2023-03-24T16:58:19.103Z,99980.38
2023-03-24T17:00:49.184Z,99978.66
2023-03-24T17:03:17.984Z,99983.94
2023-03-24T17:05:48.434Z,99984.09
2023-03-24T17:08:16.457Z,99985.91
2023-03-24T17:10:44.429Z,99978.00
2023-03-24T17:13:13.800Z,99981.59
2023-03-24T17:15:41.379Z,99986.19
2023-03-24T17:18:09.827Z,99987.19
2023-03-24T17:20:39.803Z,100003.28
2023-03-24T17:23:07.746Z,99993.00
2023-03-24T17:25:35.257Z,99991.63
2023-03-24T17:28:02.844Z,99989.25
2023-03-24T17:30:31.690Z,99990.25
2023-03-24T17:32:59.767Z,99990.38
2023-03-24T17:35:27.351Z,99979.13
2023-03-24T17:37:54.875Z,99980.09
2023-03-24T17:40:22.561Z,99983.16
2023-03-24T17:42:50.175Z,99982.31
2023-03-24T17:45:18.225Z,99981.63
2023-03-24T17:47:47.390Z,99989.69
2023-03-24T17:50:15.040Z,99988.28
2023-03-24T17:52:44.963Z,99993.69
2023-03-24T17:55:12.703Z,99985.25
2023-03-24T17:57:40.247Z,99990.25
2023-03-24T18:00:10.265Z,99980.91
2023-03-24T18:02:37.807Z,99996.06
2023-03-24T18:05:07.691Z,99998.00
2023-03-24T18:07:35.962Z,99995.50
2023-03-24T18:10:03.677Z,99988.56
2023-03-24T18:12:31.236Z,99992.16
2023-03-24T18:14:58.769Z,99990.50
2023-03-24T18:17:26.384Z,99987.84
2023-03-24T18:19:53.866Z,99986.88
2023-03-24T18:22:23.503Z,99983.31
2023-03-24T18:24:51.995Z,99980.66
2023-03-24T18:27:19.499Z,99976.63
2023-03-24T18:29:46.987Z,99970.81
2023-03-24T18:32:14.772Z,99976.47
2023-03-24T18:34:44.833Z,99969.78
2023-03-24T18:37:14.082Z,99977.16
2023-03-24T18:39:43.869Z,99973.00
2023-03-24T18:42:11.465Z,99973.00
2023-03-24T18:44:38.956Z,99976.56
2023-03-24T18:47:06.511Z,99966.75
2023-03-24T18:49:33.986Z,99960.50
2023-03-24T18:52:01.546Z,99956.88
2023-03-24T18:54:29.040Z,99953.28
2023-03-24T18:56:57.955Z,99953.28
2023-03-24T18:59:25.646Z,99945.50
2023-03-24T19:01:53.187Z,99947.31
2023-03-24T19:04:20.879Z,99947.72
2023-03-24T19:06:50.326Z,99935.66
2023-03-24T19:09:20.265Z,99938.56
2023-03-24T19:11:47.889Z,99940.63
2023-03-24T19:14:16.763Z,99939.09
2023-03-24T19:16:44.291Z,99936.63
2023-03-24T19:19:11.762Z,99939.50
2023-03-24T19:21:40.335Z,99937.00
2023-03-24T19:24:08.234Z,99937.00
2023-03-24T19:26:35.727Z,99939.66
2023-03-24T19:29:03.259Z,99931.75
2023-03-24T19:31:33.510Z,99929.94
2023-03-24T19:34:01.230Z,99929.09
2023-03-24T19:36:28.675Z,99931.75
2023-03-24T19:38:56.815Z,99926.31
2023-03-24T19:41:26.363Z,99939.34
2023-03-24T19:43:53.951Z,99938.41
2023-03-24T19:46:21.834Z,99931.34
2023-03-24T19:48:50.957Z,99941.75
2023-03-24T19:51:21.194Z,99939.94
2023-03-24T19:53:48.738Z,99949.66
2023-03-24T19:56:18.198Z,99943.25
2023-03-24T19:58:45.719Z,99936.03
2023-03-24T20:01:13.476Z,99942.16
2023-03-24T20:03:41.102Z,99940.22
2023-03-24T20:06:10.541Z,99940.22
2023-03-24T20:08:38.053Z,99940.22
2023-03-24T20:11:07.456Z,99934.97
2023-03-24T20:13:34.967Z,99933.28
2023-03-24T20:16:03.465Z,99929.81
2023-03-24T20:18:31.419Z,99933.56
2023-03-24T20:21:01.327Z,99940.63
2023-03-24T20:23:30.260Z,99934.53
2023-03-24T20:25:59.245Z,99937.16
2023-03-24T20:28:26.806Z,99934.81
2023-03-24T20:30:58.842Z,99921.63
2023-03-24T20:33:28.700Z,99921.88
2023-03-24T20:35:56.949Z,99926.47
2023-03-24T20:38:24.717Z,99930.06
2023-03-24T20:41:00.617Z,99929.38
2023-03-24T20:43:28.311Z,99930.31
2023-03-24T20:45:56.664Z,99924.38
2023-03-24T20:48:24.565Z,99917.69
2023-03-24T20:50:52.693Z,99922.22
2023-03-24T20:53:20.225Z,99932.09
2023-03-24T20:55:57.077Z,99926.25
2023-03-24T20:58:27.423Z,99922.22
2023-03-24T21:00:55.065Z,99916.41
2023-03-24T21:03:22.730Z,99910.41
2023-03-24T21:05:50.556Z,99910.41
2023-03-24T21:08:18.438Z,99917.63
2023-03-24T21:10:45.955Z,99913.59
2023-03-24T21:13:13.497Z,99918.97
2023-03-24T21:15:45.701Z,99923.69
2023-03-24T21:18:13.273Z,99919.41
2023-03-24T21:20:42.389Z,99918.72
2023-03-24T21:23:10.225Z,99919.66
2023-03-24T21:25:38.029Z,99913.69
2023-03-24T21:28:05.515Z,99915.63
2023-03-24T21:30:33.055Z,99912.31
2023-03-24T21:33:03.202Z,99914.22
2023-03-24T21:35:31.330Z,99915.19
2023-03-24T21:37:59.001Z,99923.09
2023-03-24T21:40:26.775Z,99915.19
2023-03-24T21:42:54.367Z,99911.88
2023-03-24T21:45:23.162Z,99911.16
2023-03-24T21:47:51.071Z,99918.34
2023-03-24T21:50:23.337Z,99919.31
2023-03-24T21:52:51.424Z,99919.31
2023-03-24T21:55:20.429Z,99916.81
2023-03-24T21:57:48.860Z,99916.97
2023-03-24T22:00:17.884Z,99916.28
2023-03-24T22:02:46.218Z,99905.84
2023-03-24T22:05:13.924Z,99903.22
2023-03-24T22:07:42.775Z,99902.38
2023-03-24T22:10:10.753Z,99899.75
2023-03-24T22:12:38.229Z,99898.09
2023-03-24T22:15:06.210Z,99911.38
2023-03-24T22:17:35.545Z,99905.28
2023-03-24T22:20:04.560Z,99902.78
2023-03-24T22:22:33.350Z,99890.59
2023-03-24T22:25:02.281Z,99894.16
2023-03-24T22:27:29.823Z,99896.69
2023-03-24T22:29:57.431Z,99897.66
2023-03-24T22:32:25.068Z,99893.34
2023-03-24T22:34:52.583Z,99906.50
2023-03-24T22:37:20.065Z,99904.00
2023-03-24T22:39:47.611Z,99904.97
2023-03-24T22:42:16.900Z,99905.81
2023-03-24T22:44:44.434Z,99906.78
2023-03-24T22:47:11.951Z,99906.78
2023-03-24T22:49:39.914Z,99912.03
2023-03-24T22:52:07.542Z,99910.53
2023-03-24T22:54:35.171Z,99909.69
2023-03-24T22:57:02.761Z,99908.84
2023-03-24T22:59:33.241Z,99917.59
2023-03-24T23:02:09.310Z,99916.88
2023-03-24T23:04:39.765Z,99918.66
2023-03-24T23:07:07.738Z,99909.94
2023-03-24T23:09:36.554Z,99913.53
2023-03-24T23:12:04.635Z,99913.53
2023-03-24T23:14:33.527Z,99923.09
2023-03-24T23:17:01.773Z,99917.97
2023-03-24T23:19:33.126Z,99912.69
2023-03-24T23:22:00.735Z,99903.16
2023-03-24T23:24:28.727Z,99911.88
2023-03-24T23:26:56.277Z,99908.41
2023-03-24T23:29:23.786Z,99906.88
2023-03-24T23:31:52.837Z,99898.84
2023-03-24T23:34:21.275Z,99914.78
2023-03-24T23:36:49.905Z,99914.78
2023-03-24T23:39:18.175Z,99912.84
2023-03-24T23:41:46.366Z,99905.19
2023-03-24T23:44:14.855Z,99926.25
2023-03-24T23:46:42.349Z,99910.44
2023-03-24T23:49:11.311Z,99925.16
2023-03-24T23:51:38.850Z,99924.91
2023-03-24T23:54:06.433Z,99914.50
2023-03-24T23:56:36.790Z,99909.94
2023-03-24T23:59:05.480Z,99915.19
